Bermuda Spirit — C6XT2 — position and weather

sailwx.info

Track history (hours):
 
Tides and Currents Weather Stations Pressure Air Temp Water Temp Dewpoint Dewpoint Depression Visibility Wind Speed Wind Dir Waves Ship Positions

Bermuda Spirit

Last reported at 2014-Nov-17 06:32 UTC. Time now 2014-Nov-26 18:43 UTC.
Position N 32°38' E 034°24'.
Warning: this ship's position is 9 days out of date.

Length 274 m; draft 16.1 m.

Type: Tanker. MMSI: 311020900.

Date/timePositionNaut miles runAvg speedWind from/ knotsBaromVisibWave heightAir tempDewpointWater temp
2014-Nov-17 06:32N 32°38' E 034°24'  
2014-Nov-14 16:28N 35°42' E 033°07'1112.4
2014-Nov-14 15:34N 35°39' E 032°53'1212.4
2014-Nov-14 14:33N 35°37' E 032°38'37012.2
2014-Nov-13 08:16N 34°30' E 025°13'66112.8
2014-Nov-11 04:30N 37°00' E 012°00'1812.5
2014-Nov-11 03:06N 37°09' E 011°41'14913.8
2014-Nov-10 16:19N 37°35' E 008°36'911.9
2014-Nov-10 15:33N 37°35' E 008°25'  
2014-Nov-08 09:17N 36°00' W 005°11'1317.6
2014-Nov-08 08:34N 35°57' W 005°26'  
Track history (hours):
 
Tides and Currents Weather Stations Pressure Air Temp Water Temp Dewpoint Dewpoint Depression Visibility Wind Speed Wind Dir Waves Ship Positions

Bermuda Spirit

Last reported at 2014-Nov-17 06:32 UTC. Time now 2014-Nov-26 18:43 UTC.
Position N 32°38' E 034°24'.
Warning: this ship's position is 9 days out of date.

Length 274 m; draft 16.1 m.

Type: Tanker. MMSI: 311020900.

Date/timePositionNaut miles runAvg speedWind from/ knotsBaromVisibWave heightAir tempDewpointWater temp
2014-Nov-17 06:32N 32°38' E 034°24'  
2014-Nov-14 16:28N 35°42' E 033°07'1112.4
2014-Nov-14 15:34N 35°39' E 032°53'1212.4
2014-Nov-14 14:33N 35°37' E 032°38'37012.2
2014-Nov-13 08:16N 34°30' E 025°13'66112.8
2014-Nov-11 04:30N 37°00' E 012°00'1812.5
2014-Nov-11 03:06N 37°09' E 011°41'14913.8
2014-Nov-10 16:19N 37°35' E 008°36'911.9
2014-Nov-10 15:33N 37°35' E 008°25'  
2014-Nov-08 09:17N 36°00' W 005°11'1317.6
2014-Nov-08 08:34N 35°57' W 005°26'  

Dump ship's entire track history